Time;durP1;ratioP1;P1;durP2;ratioP2;P2;SDS_P1;SDS_P2;PMS_P1;PMS_P2;Temp;Humidity;BMP_temperature;BMP_pressure;BME280_temperature;BME280_humidity;BME280_pressure;Samples;Min_cycle;Max_cycle;Signal;HPM_P1;HPM_P2
2022/08/21 00:01:02;;;;;;;13.27;7.40;;;;;;;;;;5000772;28;20110;-86
2022/08/21 00:03:27;;;;;;;10.52;6.88;;;;;;;;;;5001782;28;20368;-83
2022/08/21 00:05:53;;;;;;;12.15;7.50;;;;;;;;;;5000848;28;20046;-84
2022/08/21 00:08:19;;;;;;;15.20;7.72;;;;;;;;;;4999361;28;20482;-84
2022/08/21 00:10:46;;;;;;;10.07;6.43;;;;;;;;;;4997267;28;20080;-82
2022/08/21 00:13:12;;;;;;;14.32;8.35;;;;;;;;;;5000043;28;20391;-84
2022/08/21 00:15:39;;;;;;;13.40;8.00;;;;;;;;;;4990844;28;20419;-85
2022/08/21 00:18:07;;;;;;;13.70;8.10;;;;;;;;;;4987759;28;20133;-82
2022/08/21 00:20:34;;;;;;;17.60;8.52;;;;;;;;;;4998936;28;20030;-85
2022/08/21 00:23:00;;;;;;;15.57;8.43;;;;;;;;;;5004335;28;20034;-85
2022/08/21 00:25:26;;;;;;;13.30;8.30;;;;;;;;;;4996609;28;20026;-84
2022/08/21 00:27:53;;;;;;;14.23;8.45;;;;;;;;;;4998254;28;20165;-85
2022/08/21 00:30:20;;;;;;;16.13;7.85;;;;;;;;;;4999828;28;20142;-84
2022/08/21 00:32:46;;;;;;;12.38;6.55;;;;;;;;;;4997253;28;20026;-84
2022/08/21 00:35:15;;;;;;;13.65;7.53;;;;;;;;;;5005024;28;20030;-84
2022/08/21 00:37:42;;;;;;;9.05;5.00;;;;;;;;;;4996113;28;20480;-84
2022/08/21 00:40:11;;;;;;;11.95;5.80;;;;;;;;;;5004980;28;20458;-84
2022/08/21 00:42:38;;;;;;;13.38;5.85;;;;;;;;;;5002995;28;20033;-83
2022/08/21 00:45:04;;;;;;;11.85;5.07;;;;;;;;;;4996365;28;20022;-83
2022/08/21 00:47:30;;;;;;;12.63;4.50;;;;;;;;;;4993359;28;20033;-83
2022/08/21 00:49:56;;;;;;;12.48;5.85;;;;;;;;;;5004846;28;20030;-83
2022/08/21 00:52:26;;;;;;;10.65;4.75;;;;;;;;;;5002168;28;20198;-85
2022/08/21 00:54:54;;;;;;;9.30;5.07;;;;;;;;;;5001741;28;20514;-84
2022/08/21 00:57:25;;;;;;;8.05;5.07;;;;;;;;;;5010526;28;20026;-84
2022/08/21 00:59:55;;;;;;;13.77;7.30;;;;;;;;;;4991832;28;20518;-84
2022/08/21 01:02:21;;;;;;;8.18;4.72;;;;;;;;;;5000344;28;20753;-82
2022/08/21 01:04:47;;;;;;;11.05;3.92;;;;;;;;;;4998416;28;20041;-81
2022/08/21 01:07:12;;;;;;;6.63;4.22;;;;;;;;;;5001391;28;20425;-81
2022/08/21 01:09:40;;;;;;;7.50;3.30;;;;;;;;;;5001480;28;20037;-82
2022/08/21 01:12:06;;;;;;;7.50;3.80;;;;;;;;;;5001460;28;20379;-82
2022/08/21 01:14:32;;;;;;;6.03;3.10;;;;;;;;;;5001309;28;20509;-82
2022/08/21 01:17:00;;;;;;;5.80;3.45;;;;;;;;;;5004951;28;20161;-81
2022/08/21 01:19:25;;;;;;;5.63;3.40;;;;;;;;;;5000574;28;20058;-81
2022/08/21 01:21:51;;;;;;;9.20;2.80;;;;;;;;;;4992983;28;20034;-82
2022/08/21 01:24:17;;;;;;;7.68;3.05;;;;;;;;;;4992707;28;20034;-81
2022/08/21 01:26:43;;;;;;;6.97;2.65;;;;;;;;;;4992832;28;20493;-81
2022/08/21 01:29:13;;;;;;;8.48;3.00;;;;;;;;;;5002679;28;20030;-81
2022/08/21 01:31:39;;;;;;;6.20;3.25;;;;;;;;;;4992022;28;20029;-83
2022/08/21 01:34:05;;;;;;;5.90;3.38;;;;;;;;;;4993334;28;20026;-81
2022/08/21 01:36:32;;;;;;;6.25;3.17;;;;;;;;;;4986065;28;20033;-81
2022/08/21 01:38:57;;;;;;;6.30;3.08;;;;;;;;;;4996714;28;20054;-81
2022/08/21 01:41:23;;;;;;;5.75;3.22;;;;;;;;;;4992024;28;20060;-81
2022/08/21 01:43:49;;;;;;;5.70;3.08;;;;;;;;;;4995336;28;20271;-81
2022/08/21 01:46:15;;;;;;;4.55;2.47;;;;;;;;;;4992153;28;20030;-82
2022/08/21 01:48:41;;;;;;;5.53;2.25;;;;;;;;;;4992377;28;20042;-80
2022/08/21 01:51:06;;;;;;;8.55;3.00;;;;;;;;;;4982675;28;20041;-82
2022/08/21 01:53:35;;;;;;;6.60;3.00;;;;;;;;;;5008137;28;20038;-82
2022/08/21 01:56:02;;;;;;;5.88;2.53;;;;;;;;;;4998500;28;20026;-81
2022/08/21 01:58:27;;;;;;;7.25;3.00;;;;;;;;;;4994507;28;20069;-81
2022/08/21 02:00:53;;;;;;;6.00;2.25;;;;;;;;;;4991847;28;20022;-80
2022/08/21 02:03:18;;;;;;;5.22;2.97;;;;;;;;;;4995086;28;20498;-81
2022/08/21 02:05:44;;;;;;;8.15;3.08;;;;;;;;;;5001024;28;20101;-80
2022/08/21 02:08:09;;;;;;;5.18;2.47;;;;;;;;;;4980379;28;20470;-81
2022/08/21 02:10:34;;;;;;;5.40;2.72;;;;;;;;;;5002772;28;20267;-81
2022/08/21 02:13:00;;;;;;;7.40;2.67;;;;;;;;;;4994820;28;20164;-81
2022/08/21 02:15:27;;;;;;;7.47;2.78;;;;;;;;;;4979835;28;20483;-81
2022/08/21 02:17:57;;;;;;;7.50;2.67;;;;;;;;;;4991352;28;20043;-80
2022/08/21 02:20:25;;;;;;;6.35;2.45;;;;;;;;;;4989551;28;20033;-81
2022/08/21 02:22:51;;;;;;;6.20;2.55;;;;;;;;;;4994209;28;20080;-80
2022/08/21 02:25:19;;;;;;;6.47;2.83;;;;;;;;;;4991766;28;20026;-81
2022/08/21 02:27:47;;;;;;;5.97;2.50;;;;;;;;;;4991407;28;20500;-81
2022/08/21 02:30:20;;;;;;;7.75;2.83;;;;;;;;;;4996927;28;20037;-81
2022/08/21 02:32:45;;;;;;;6.07;2.90;;;;;;;;;;4991400;28;20423;-80
2022/08/21 02:35:12;;;;;;;7.22;3.53;;;;;;;;;;4996637;28;20091;-81
2022/08/21 02:38:06;;;;;;;8.82;3.17;;;;;;;;;;4994969;28;20036;-81
2022/08/21 02:40:34;;;;;;;6.88;3.03;;;;;;;;;;4992416;28;20121;-80
2022/08/21 02:43:02;;;;;;;5.47;2.92;;;;;;;;;;4991308;28;20026;-80
2022/08/21 02:45:28;;;;;;;9.25;3.33;;;;;;;;;;4991425;28;20033;-80
2022/08/21 02:48:19;;;;;;;7.03;2.92;;;;;;;;;;4991185;28;20109;-81
2022/08/21 02:50:50;;;;;;;6.95;3.05;;;;;;;;;;4991591;28;20042;-81
2022/08/21 02:53:16;;;;;;;5.65;3.20;;;;;;;;;;4991376;28;20101;-81
2022/08/21 02:55:45;;;;;;;8.52;2.97;;;;;;;;;;4981370;28;20112;-81
2022/08/21 02:58:10;;;;;;;5.47;3.33;;;;;;;;;;4991355;28;20473;-81
2022/08/21 03:00:37;;;;;;;6.18;2.88;;;;;;;;;;5000128;28;20026;-80
2022/08/21 03:03:04;;;;;;;8.93;2.65;;;;;;;;;;4991147;28;20037;-81
2022/08/21 03:05:31;;;;;;;5.63;2.85;;;;;;;;;;4990937;28;20034;-80
2022/08/21 03:07:57;;;;;;;7.03;2.72;;;;;;;;;;4990807;28;20022;-81
2022/08/21 03:10:23;;;;;;;7.65;3.25;;;;;;;;;;4991062;28;20027;-81
2022/08/21 03:12:49;;;;;;;6.05;3.30;;;;;;;;;;4979997;28;20516;-81
2022/08/21 03:15:19;;;;;;;8.77;2.70;;;;;;;;;;4993031;28;20040;-81
2022/08/21 03:17:46;;;;;;;5.93;3.25;;;;;;;;;;4991187;28;20494;-80
2022/08/21 03:20:15;;;;;;;7.03;2.83;;;;;;;;;;4994680;28;20027;-80
2022/08/21 03:22:41;;;;;;;6.63;2.90;;;;;;;;;;4999900;28;20446;-81
2022/08/21 03:25:08;;;;;;;10.18;3.53;;;;;;;;;;5003422;28;20348;-81
2022/08/21 03:27:34;;;;;;;7.47;3.00;;;;;;;;;;4994848;28;20110;-81
2022/08/21 03:30:00;;;;;;;6.55;2.92;;;;;;;;;;4996845;28;20030;-80
2022/08/21 03:32:26;;;;;;;6.35;2.92;;;;;;;;;;5006378;28;20077;-81
2022/08/21 03:34:51;;;;;;;6.20;2.60;;;;;;;;;;4977249;28;20042;-81
2022/08/21 03:37:17;;;;;;;6.25;2.63;;;;;;;;;;5000887;28;20037;-81
2022/08/21 03:39:44;;;;;;;6.18;2.85;;;;;;;;;;5005047;28;20026;-81
2022/08/21 03:42:10;;;;;;;4.82;2.65;;;;;;;;;;5002148;28;20478;-81
2022/08/21 03:44:36;;;;;;;3.83;2.40;;;;;;;;;;5005518;28;20166;-80
2022/08/21 03:47:01;;;;;;;6.63;2.88;;;;;;;;;;4999375;28;20177;-80
2022/08/21 03:49:27;;;;;;;8.18;2.78;;;;;;;;;;4994236;28;20030;-80
2022/08/21 03:51:53;;;;;;;3.80;2.55;;;;;;;;;;4997285;28;20034;-81
2022/08/21 03:54:18;;;;;;;5.38;2.78;;;;;;;;;;5006569;28;20028;-80
2022/08/21 03:56:44;;;;;;;7.68;2.40;;;;;;;;;;5005534;28;20030;-80
2022/08/21 03:59:10;;;;;;;7.57;2.95;;;;;;;;;;4998399;28;20034;-81
2022/08/21 04:01:35;;;;;;;7.25;2.63;;;;;;;;;;4993963;28;20030;-81
2022/08/21 04:04:02;;;;;;;7.75;3.05;;;;;;;;;;5003151;28;20030;-81
2022/08/21 04:06:27;;;;;;;9.93;3.90;;;;;;;;;;4999751;28;20088;-81
2022/08/21 04:08:53;;;;;;;5.45;2.67;;;;;;;;;;5008818;28;20034;-81
2022/08/21 04:11:19;;;;;;;10.10;3.30;;;;;;;;;;4998959;28;20109;-81
2022/08/21 04:13:45;;;;;;;7.10;2.67;;;;;;;;;;4995069;28;20065;-81
2022/08/21 04:16:10;;;;;;;8.70;3.20;;;;;;;;;;5008636;28;20056;-81
2022/08/21 04:18:36;;;;;;;5.20;3.15;;;;;;;;;;4997072;28;20062;-81
2022/08/21 04:21:02;;;;;;;9.52;3.22;;;;;;;;;;4999132;28;20030;-81
2022/08/21 04:23:28;;;;;;;6.30;2.90;;;;;;;;;;5001956;28;20048;-81
2022/08/21 04:25:55;;;;;;;8.32;2.92;;;;;;;;;;4977742;28;20394;-81
2022/08/21 04:28:21;;;;;;;12.68;3.42;;;;;;;;;;4997885;28;20030;-81
2022/08/21 04:30:47;;;;;;;7.90;2.80;;;;;;;;;;4996159;28;20045;-81
2022/08/21 04:33:13;;;;;;;7.43;3.03;;;;;;;;;;5001900;28;20022;-80
2022/08/21 04:35:38;;;;;;;6.68;2.45;;;;;;;;;;4998008;28;20030;-81
2022/08/21 04:38:04;;;;;;;6.38;2.58;;;;;;;;;;5008903;28;20026;-82
2022/08/21 04:40:29;;;;;;;6.72;3.28;;;;;;;;;;5001695;28;20030;-81
2022/08/21 04:43:02;;;;;;;4.68;2.80;;;;;;;;;;5008194;28;20466;-81
2022/08/21 04:45:43;;;;;;;5.35;3.00;;;;;;;;;;5001246;28;20033;-81
2022/08/21 04:48:11;;;;;;;6.20;3.22;;;;;;;;;;4992607;28;20045;-80
2022/08/21 04:51:11;;;;;;;6.13;2.92;;;;;;;;;;4981289;28;20022;-80
2022/08/21 04:53:45;;;;;;;6.07;3.00;;;;;;;;;;4997866;28;20119;-80
2022/08/21 04:56:32;;;;;;;6.57;3.28;;;;;;;;;;4994238;28;20038;-80
2022/08/21 04:59:03;;;;;;;7.72;2.65;;;;;;;;;;4996188;28;20037;-81
2022/08/21 05:01:32;;;;;;;9.35;3.45;;;;;;;;;;4993230;28;20069;-81
2022/08/21 05:03:59;;;;;;;6.78;3.03;;;;;;;;;;4993452;28;20061;-81
2022/08/21 05:06:26;;;;;;;8.40;3.45;;;;;;;;;;4992919;28;20034;-81
2022/08/21 05:08:54;;;;;;;9.48;3.90;;;;;;;;;;4996758;28;20049;-82
2022/08/21 05:11:19;;;;;;;12.48;3.85;;;;;;;;;;4997529;28;20029;-82
2022/08/21 05:13:45;;;;;;;19.27;12.40;;;;;;;;;;5000709;28;20056;-84
2022/08/21 05:16:11;;;;;;;14.63;8.88;;;;;;;;;;4982360;28;20030;-82
2022/08/21 05:18:36;;;;;;;13.93;7.57;;;;;;;;;;4996818;28;20038;-81
2022/08/21 05:21:02;;;;;;;8.90;4.93;;;;;;;;;;4996042;28;20033;-81
2022/08/21 05:23:28;;;;;;;9.52;4.72;;;;;;;;;;4993021;28;20023;-84
2022/08/21 05:25:54;;;;;;;7.88;4.57;;;;;;;;;;4996943;28;20030;-82
2022/08/21 05:28:20;;;;;;;7.68;4.65;;;;;;;;;;4998937;28;20030;-81
2022/08/21 05:30:45;;;;;;;7.95;4.90;;;;;;;;;;5005813;28;20030;-84
2022/08/21 05:33:11;;;;;;;6.88;4.47;;;;;;;;;;4996365;28;20026;-82
2022/08/21 05:35:38;;;;;;;7.35;4.60;;;;;;;;;;4999470;28;20030;-83
2022/08/21 05:38:04;;;;;;;9.95;5.07;;;;;;;;;;4979027;28;20061;-80
2022/08/21 05:40:31;;;;;;;9.48;4.90;;;;;;;;;;4993021;28;20077;-81
2022/08/21 05:42:58;;;;;;;8.70;4.43;;;;;;;;;;4994587;28;20113;-82
2022/08/21 05:45:27;;;;;;;8.07;4.32;;;;;;;;;;4994545;28;20085;-80
2022/08/21 05:47:53;;;;;;;9.77;6.43;;;;;;;;;;5000451;28;20028;-81
2022/08/21 05:50:19;;;;;;;47.33;32.38;;;;;;;;;;4999607;28;20022;-80
2022/08/21 05:52:44;;;;;;;12.65;6.32;;;;;;;;;;5000539;28;20034;-84
2022/08/21 05:55:09;;;;;;;8.70;6.20;;;;;;;;;;5000343;28;20449;-81
2022/08/21 05:57:35;;;;;;;10.32;5.13;;;;;;;;;;4997457;28;20058;-80
2022/08/21 06:00:00;;;;;;;7.65;4.88;;;;;;;;;;4997350;28;20060;-80
2022/08/21 06:02:25;;;;;;;9.20;5.60;;;;;;;;;;4999601;28;20033;-82
2022/08/21 06:04:51;;;;;;;12.05;5.15;;;;;;;;;;5000890;28;20081;-81
2022/08/21 06:07:17;;;;;;;11.32;4.93;;;;;;;;;;4978852;28;20141;-81
2022/08/21 06:09:45;;;;;;;8.00;4.68;;;;;;;;;;5002131;28;20386;-82
2022/08/21 06:12:12;;;;;;;9.15;4.60;;;;;;;;;;4997424;28;20026;-80
2022/08/21 06:14:39;;;;;;;11.90;4.80;;;;;;;;;;4995338;28;20054;-79
2022/08/21 06:17:07;;;;;;;8.18;4.80;;;;;;;;;;4994731;28;20069;-79
2022/08/21 06:19:33;;;;;;;8.10;4.93;;;;;;;;;;4991591;28;20050;-81
2022/08/21 06:21:58;;;;;;;10.48;5.90;;;;;;;;;;4991722;28;20034;-80
2022/08/21 06:24:24;;;;;;;11.40;5.18;;;;;;;;;;4999077;28;20029;-79
2022/08/21 06:26:50;;;;;;;10.15;5.55;;;;;;;;;;4989353;28;20060;-81
2022/08/21 06:29:16;;;;;;;7.47;5.03;;;;;;;;;;4996085;28;20038;-79
2022/08/21 06:31:43;;;;;;;8.55;4.95;;;;;;;;;;4994526;28;20077;-80
2022/08/21 06:34:08;;;;;;;7.70;4.40;;;;;;;;;;4990548;28;20085;-80
2022/08/21 06:36:34;;;;;;;13.70;5.32;;;;;;;;;;4995893;28;20378;-80
2022/08/21 06:38:59;;;;;;;10.73;4.85;;;;;;;;;;4990579;28;20026;-80
2022/08/21 06:41:25;;;;;;;38.50;26.92;;;;;;;;;;4992170;28;20087;-80
2022/08/21 06:43:50;;;;;;;8.95;5.78;;;;;;;;;;4975452;28;20049;-80
2022/08/21 06:46:16;;;;;;;11.48;5.38;;;;;;;;;;4991264;28;20374;-81
2022/08/21 06:48:41;;;;;;;14.32;5.65;;;;;;;;;;4990402;28;20105;-80
2022/08/21 06:51:07;;;;;;;7.70;4.97;;;;;;;;;;4995239;28;20026;-80
2022/08/21 06:53:32;;;;;;;7.18;5.00;;;;;;;;;;4998680;28;20033;-81
2022/08/21 06:55:58;;;;;;;7.45;5.47;;;;;;;;;;4993360;28;20419;-80
2022/08/21 06:58:23;;;;;;;8.32;5.10;;;;;;;;;;4989739;28;20483;-80
2022/08/21 07:00:51;;;;;;;9.00;5.38;;;;;;;;;;4991035;28;20236;-81
2022/08/21 07:03:35;;;;;;;10.90;5.13;;;;;;;;;;4998294;28;20576;-80
2022/08/21 07:06:01;;;;;;;7.43;5.40;;;;;;;;;;4979686;28;20040;-82
2022/08/21 07:08:28;;;;;;;11.00;5.40;;;;;;;;;;4995334;28;20026;-80
2022/08/21 07:10:55;;;;;;;9.60;4.65;;;;;;;;;;4974342;28;20077;-81
2022/08/21 07:13:21;;;;;;;7.82;4.55;;;;;;;;;;4993451;28;20026;-81
2022/08/21 07:15:47;;;;;;;9.50;5.47;;;;;;;;;;4990412;28;20038;-80
2022/08/21 07:18:13;;;;;;;10.77;4.57;;;;;;;;;;4993735;28;20035;-80
2022/08/21 07:20:39;;;;;;;13.68;9.77;;;;;;;;;;4992685;28;20023;-80
2022/08/21 07:23:26;;;;;;;41.83;30.33;;;;;;;;;;4995407;28;20060;-80
2022/08/21 07:25:52;;;;;;;17.83;14.30;;;;;;;;;;4990934;28;20088;-82
2022/08/21 07:28:18;;;;;;;9.30;6.80;;;;;;;;;;4990306;28;20030;-80
2022/08/21 07:30:44;;;;;;;8.23;6.10;;;;;;;;;;4990346;28;20776;-81
2022/08/21 07:33:09;;;;;;;6.97;4.82;;;;;;;;;;4992199;28;20030;-81
2022/08/21 07:35:35;;;;;;;7.68;5.43;;;;;;;;;;4997095;28;20363;-83
2022/08/21 07:38:00;;;;;;;6.32;4.82;;;;;;;;;;4990470;28;20033;-82
2022/08/21 07:40:26;;;;;;;9.00;5.07;;;;;;;;;;4991765;28;20034;-80
2022/08/21 07:42:51;;;;;;;5.95;4.55;;;;;;;;;;4991069;28;20026;-81
2022/08/21 07:45:24;;;;;;;9.45;4.60;;;;;;;;;;4990478;28;20022;-82
2022/08/21 07:47:49;;;;;;;7.85;4.15;;;;;;;;;;4989715;28;20058;-80
2022/08/21 07:50:15;;;;;;;6.80;4.50;;;;;;;;;;4994540;28;20019;-82
2022/08/21 07:52:42;;;;;;;9.05;4.82;;;;;;;;;;4990283;28;20030;-81
2022/08/21 07:55:10;;;;;;;7.70;4.97;;;;;;;;;;4989253;28;20030;-81
2022/08/21 07:57:37;;;;;;;6.80;4.95;;;;;;;;;;4995409;28;20033;-81
2022/08/21 08:00:08;;;;;;;6.05;4.72;;;;;;;;;;4989557;28;20030;-81
2022/08/21 08:02:34;;;;;;;23.58;18.98;;;;;;;;;;4988362;28;20034;-82
2022/08/21 08:05:00;;;;;;;21.50;15.80;;;;;;;;;;4993848;28;20620;-81
2022/08/21 08:07:26;;;;;;;6.75;4.60;;;;;;;;;;4995667;28;20026;-80
2022/08/21 08:09:52;;;;;;;7.10;4.65;;;;;;;;;;4993206;28;20506;-80
2022/08/21 08:12:18;;;;;;;6.55;4.13;;;;;;;;;;4993297;28;20427;-81
2022/08/21 08:14:43;;;;;;;8.50;4.65;;;;;;;;;;4982044;28;20032;-81
2022/08/21 08:17:09;;;;;;;11.43;4.80;;;;;;;;;;4994169;28;20030;-80
2022/08/21 08:19:35;;;;;;;9.55;4.22;;;;;;;;;;4999234;28;20069;-80
2022/08/21 08:22:00;;;;;;;11.30;4.50;;;;;;;;;;4993927;28;20092;-80
2022/08/21 08:24:25;;;;;;;8.75;4.78;;;;;;;;;;4994134;28;20038;-79
2022/08/21 08:26:51;;;;;;;6.40;3.97;;;;;;;;;;4993358;28;20029;-79
2022/08/21 08:29:16;;;;;;;7.13;4.30;;;;;;;;;;4993285;28;20081;-79
2022/08/21 08:31:42;;;;;;;19.48;12.77;;;;;;;;;;4993231;28;20037;-79
2022/08/21 08:34:07;;;;;;;12.85;8.40;;;;;;;;;;4992996;28;20394;-79
2022/08/21 08:36:35;;;;;;;9.60;5.22;;;;;;;;;;4976616;28;20181;-79
2022/08/21 08:39:05;;;;;;;6.53;4.70;;;;;;;;;;4992756;28;20637;-80
2022/08/21 08:41:33;;;;;;;8.73;4.90;;;;;;;;;;4993222;28;20026;-80
2022/08/21 08:44:03;;;;;;;6.45;4.68;;;;;;;;;;4999392;28;20046;-80
2022/08/21 08:46:38;;;;;;;7.68;4.60;;;;;;;;;;4992881;28;20129;-80
2022/08/21 08:49:14;;;;;;;6.93;4.93;;;;;;;;;;4992001;28;20038;-80
2022/08/21 08:52:13;;;;;;;8.13;4.60;;;;;;;;;;4994170;28;20479;-80
2022/08/21 08:54:50;;;;;;;7.57;4.38;;;;;;;;;;4976378;28;20125;-80
2022/08/21 08:57:20;;;;;;;8.20;5.13;;;;;;;;;;4994684;28;20031;-80
2022/08/21 08:59:52;;;;;;;9.05;5.15;;;;;;;;;;4992443;28;20390;-80
2022/08/21 09:02:18;;;;;;;7.72;4.15;;;;;;;;;;4994460;28;20038;-81
2022/08/21 09:04:47;;;;;;;7.75;4.53;;;;;;;;;;4994658;28;20030;-80
2022/08/21 09:07:25;;;;;;;7.37;4.90;;;;;;;;;;4996187;28;20019;-80
2022/08/21 09:10:21;;;;;;;10.52;4.95;;;;;;;;;;4991949;28;20122;-80
2022/08/21 09:13:25;;;;;;;5.90;4.03;;;;;;;;;;4991754;28;20450;-81
2022/08/21 09:16:15;;;;;;;8.98;4.70;;;;;;;;;;4991612;28;20049;-80
2022/08/21 09:18:41;;;;;;;9.68;5.05;;;;;;;;;;4992017;28;20411;-81
2022/08/21 09:21:24;;;;;;;17.83;12.38;;;;;;;;;;4996538;28;20034;-81
2022/08/21 09:23:59;;;;;;;19.63;16.75;;;;;;;;;;4988619;28;20105;-81
2022/08/21 09:26:35;;;;;;;15.18;11.70;;;;;;;;;;4991378;28;20018;-80
2022/08/21 09:29:01;;;;;;;8.05;5.25;;;;;;;;;;4994058;28;20030;-80
2022/08/21 09:31:33;;;;;;;7.55;4.50;;;;;;;;;;4992236;28;20120;-80
2022/08/21 09:34:08;;;;;;;6.35;4.30;;;;;;;;;;4991883;28;20045;-79
2022/08/21 09:36:41;;;;;;;9.13;5.50;;;;;;;;;;4988028;28;20034;-81
2022/08/21 09:39:08;;;;;;;10.00;4.10;;;;;;;;;;4986198;28;20529;-81
2022/08/21 09:41:36;;;;;;;11.73;5.43;;;;;;;;;;4985742;28;20449;-81
2022/08/21 09:44:03;;;;;;;8.75;3.95;;;;;;;;;;4989962;28;20036;-80
2022/08/21 09:46:28;;;;;;;6.82;4.10;;;;;;;;;;4990337;28;20017;-81
2022/08/21 09:48:58;;;;;;;4.80;3.90;;;;;;;;;;4989511;28;20379;-81
2022/08/21 09:51:26;;;;;;;13.90;10.65;;;;;;;;;;4992391;28;20669;-80
2022/08/21 09:54:10;;;;;;;20.80;13.20;;;;;;;;;;4991834;28;20042;-80
2022/08/21 09:59:43;;;;;;;8.40;4.90;;;;;;;;;;4995552;28;20522;-81
2022/08/21 10:02:30;;;;;;;8.75;5.55;;;;;;;;;;4993015;28;20026;-81
2022/08/21 10:05:02;;;;;;;8.55;4.50;;;;;;;;;;4991854;28;20498;-81
2022/08/21 10:07:31;;;;;;;7.75;4.88;;;;;;;;;;4991422;28;20053;-80
2022/08/21 10:10:13;;;;;;;8.15;4.93;;;;;;;;;;4974420;28;20391;-81
2022/08/21 10:12:48;;;;;;;8.50;4.75;;;;;;;;;;4973208;28;20133;-81
2022/08/21 10:15:27;;;;;;;7.38;5.18;;;;;;;;;;4995014;28;20033;-80
2022/08/21 10:18:11;;;;;;;9.05;4.82;;;;;;;;;;4990675;28;20069;-80
2022/08/21 10:20:37;;;;;;;9.98;4.93;;;;;;;;;;4995249;28;20387;-80
2022/08/21 10:23:29;;;;;;;6.43;4.60;;;;;;;;;;4994941;28;20034;-82
2022/08/21 10:26:20;;;;;;;9.45;4.70;;;;;;;;;;4990525;28;20022;-81
2022/08/21 10:29:10;;;;;;;10.98;5.10;;;;;;;;;;4993991;28;20478;-81
2022/08/21 10:31:42;;;;;;;;;;;;;;;;;;4988832;28;20039;-81
2022/08/21 10:34:28;;;;;;;6.25;4.43;;;;;;;;;;4991282;28;19989;-80
2022/08/21 10:37:05;;;;;;;8.90;6.30;;;;;;;;;;4989441;28;20030;-80
2022/08/21 10:39:40;;;;;;;10.13;6.90;;;;;;;;;;4990779;28;20030;-81
2022/08/21 10:42:29;;;;;;;9.20;6.68;;;;;;;;;;4990702;28;20034;-80
2022/08/21 10:45:11;;;;;;;7.17;4.03;;;;;;;;;;4990245;28;20046;-81
2022/08/21 10:48:01;;;;;;;7.40;4.78;;;;;;;;;;4990646;28;20018;-81
2022/08/21 10:50:47;;;;;;;8.00;4.40;;;;;;;;;;4990957;28;20556;-80
2022/08/21 10:53:41;;;;;;;7.30;4.10;;;;;;;;;;4990386;28;20093;-81
2022/08/21 10:56:24;;;;;;;29.10;23.30;;;;;;;;;;4989914;28;20073;-81
2022/08/21 10:59:09;;;;;;;22.05;16.30;;;;;;;;;;4994121;28;20034;-80
2022/08/21 11:01:41;;;;;;;7.63;4.47;;;;;;;;;;4977584;28;20050;-80
2022/08/21 11:04:20;;;;;;;8.23;4.88;;;;;;;;;;4991081;28;20033;-81
2022/08/21 11:06:51;;;;;;;6.07;4.45;;;;;;;;;;4990637;28;20018;-81
2022/08/21 11:09:21;;;;;;;7.28;4.13;;;;;;;;;;4993119;28;20087;-81
2022/08/21 11:12:12;;;;;;;7.28;4.10;;;;;;;;;;4990861;28;20394;-79
2022/08/21 11:14:54;;;;;;;5.88;4.72;;;;;;;;;;4995410;28;20100;-80
2022/08/21 11:17:27;;;;;;;6.10;4.60;;;;;;;;;;4991437;28;20105;-80
2022/08/21 11:20:28;;;;;;;9.77;4.65;;;;;;;;;;4982427;28;20800;-81
2022/08/21 11:23:00;;;;;;;4.90;3.53;;;;;;;;;;4980582;28;20039;-80
2022/08/21 11:25:39;;;;;;;6.00;3.72;;;;;;;;;;4988281;28;20453;-80
2022/08/21 11:28:17;;;;;;;4.72;3.78;;;;;;;;;;4988162;28;20041;-80
2022/08/21 11:30:42;;;;;;;5.97;3.65;;;;;;;;;;4991953;28;20030;-81
2022/08/21 11:33:31;;;;;;;5.63;3.55;;;;;;;;;;4991328;28;20038;-81
2022/08/21 11:36:06;;;;;;;6.13;3.67;;;;;;;;;;4993761;28;20023;-80
2022/08/21 11:38:47;;;;;;;5.65;3.55;;;;;;;;;;4994866;28;20033;-80
2022/08/21 11:41:30;;;;;;;5.88;3.50;;;;;;;;;;4998743;28;20042;-81
2022/08/21 11:43:59;;;;;;;4.85;3.70;;;;;;;;;;4976799;28;20022;-80
2022/08/21 11:46:46;;;;;;;4.60;3.50;;;;;;;;;;4978734;28;20034;-81
2022/08/21 11:49:52;;;;;;;5.13;3.55;;;;;;;;;;4990285;28;20030;-81
2022/08/21 11:52:31;;;;;;;4.80;3.65;;;;;;;;;;4965755;28;20129;-82
2022/08/21 11:55:03;;;;;;;6.80;3.95;;;;;;;;;;4993139;28;20460;-80
2022/08/21 11:57:45;;;;;;;5.85;4.07;;;;;;;;;;4992144;28;20037;-81
2022/08/21 12:00:18;;;;;;;6.55;4.15;;;;;;;;;;4993890;28;20138;-80
2022/08/21 12:03:11;;;;;;;6.28;3.72;;;;;;;;;;4996475;28;20386;-81
2022/08/21 12:05:40;;;;;;;6.70;3.80;;;;;;;;;;4992600;28;20455;-81
2022/08/21 12:08:09;;;;;;;5.55;4.15;;;;;;;;;;4994063;28;20070;-81
2022/08/21 12:10:46;;;;;;;7.60;3.88;;;;;;;;;;4980676;28;20038;-81
2022/08/21 12:13:31;;;;;;;5.05;3.42;;;;;;;;;;4991288;28;20049;-82
2022/08/21 12:16:08;;;;;;;6.47;3.85;;;;;;;;;;4993511;28;20553;-81
2022/08/21 12:18:34;;;;;;;5.68;3.95;;;;;;;;;;4993464;28;20038;-81
2022/08/21 12:21:20;;;;;;;10.05;4.18;;;;;;;;;;5001671;28;20600;-80
2022/08/21 12:24:00;;;;;;;4.72;3.67;;;;;;;;;;4991195;28;20030;-81
2022/08/21 12:26:31;;;;;;;;;;;;;;;;;;4992890;28;20476;-81
2022/08/21 12:29:20;;;;;;;5.10;3.50;;;;;;;;;;5003230;28;19917;-81
2022/08/21 12:32:01;;;;;;;6.40;3.63;;;;;;;;;;4993336;28;20065;-80
2022/08/21 12:34:34;;;;;;;50.35;41.22;;;;;;;;;;4994796;28;20034;-81
2022/08/21 12:37:05;;;;;;;44.63;39.00;;;;;;;;;;4992806;28;20038;-80
2022/08/21 12:39:33;;;;;;;9.02;6.32;;;;;;;;;;4993496;28;20026;-81
2022/08/21 12:42:15;;;;;;;7.68;5.22;;;;;;;;;;4993274;28;20050;-81
2022/08/21 12:44:50;;;;;;;10.82;5.55;;;;;;;;;;4992995;28;20049;-81
2022/08/21 12:47:25;;;;;;;13.57;7.18;;;;;;;;;;4996173;28;20495;-81
2022/08/21 12:50:00;;;;;;;7.85;5.38;;;;;;;;;;4996108;28;20033;-80
2022/08/21 12:52:50;;;;;;;8.55;5.85;;;;;;;;;;4992063;28;20026;-80
2022/08/21 12:55:27;;;;;;;7.95;5.40;;;;;;;;;;4993901;28;20033;-80
2022/08/21 12:57:52;;;;;;;9.20;5.32;;;;;;;;;;4984254;28;20039;-81
2022/08/21 13:00:22;;;;;;;5.75;4.70;;;;;;;;;;4993119;28;20084;-81
2022/08/21 13:02:50;;;;;;;6.38;3.97;;;;;;;;;;4995223;28;20050;-81
2022/08/21 13:05:25;;;;;;;37.00;30.73;;;;;;;;;;4992822;28;20475;-80
2022/08/21 13:07:51;;;;;;;33.47;28.23;;;;;;;;;;4994494;28;20034;-81
2022/08/21 13:10:22;;;;;;;78.60;60.95;;;;;;;;;;4994787;28;20076;-81
2022/08/21 13:12:48;;;;;;;8.35;6.68;;;;;;;;;;4993082;28;20054;-80
2022/08/21 13:15:22;;;;;;;9.90;4.15;;;;;;;;;;4992891;28;20069;-81
2022/08/21 13:17:50;;;;;;;6.20;4.15;;;;;;;;;;4992787;28;20034;-80
2022/08/21 13:20:23;;;;;;;9.77;5.75;;;;;;;;;;4992664;28;20538;-80
2022/08/21 13:22:49;;;;;;;8.10;4.55;;;;;;;;;;4992483;28;20026;-80
2022/08/21 13:25:17;;;;;;;5.57;3.17;;;;;;;;;;4991054;28;20141;-80
2022/08/21 13:27:56;;;;;;;6.88;3.85;;;;;;;;;;4992768;28;20030;-81
2022/08/21 13:30:30;;;;;;;6.70;4.10;;;;;;;;;;4993858;28;20037;-81
2022/08/21 13:32:59;;;;;;;10.05;5.00;;;;;;;;;;4994609;28;20267;-80
2022/08/21 13:35:50;;;;;;;30.70;24.57;;;;;;;;;;4992422;28;20715;-81
2022/08/21 13:38:19;;;;;;;21.73;14.80;;;;;;;;;;4992805;28;20764;-81
2022/08/21 13:40:56;;;;;;;6.97;3.55;;;;;;;;;;4993166;28;20033;-81
2022/08/21 13:43:28;;;;;;;4.13;3.72;;;;;;;;;;4989635;28;20030;-81
2022/08/21 13:45:55;;;;;;;4.95;3.40;;;;;;;;;;4975819;28;20038;-83
2022/08/21 13:48:24;;;;;;;5.38;3.65;;;;;;;;;;4989705;28;20101;-80
2022/08/21 13:50:50;;;;;;;;;;;;;;;;;;4988630;28;20030;-80
2022/08/21 13:53:30;;;;;;;5.18;4.40;;;;;;;;;;4991700;28;19936;-80
2022/08/21 13:55:55;;;;;;;6.88;4.43;;;;;;;;;;4977930;28;20479;-80
2022/08/21 13:58:28;;;;;;;5.80;3.83;;;;;;;;;;4994554;28;20042;-80
2022/08/21 14:00:55;;;;;;;9.18;4.18;;;;;;;;;;4996422;28;20508;-80
2022/08/21 14:03:43;;;;;;;5.47;3.90;;;;;;;;;;4980707;28;20509;-80
2022/08/21 14:06:21;;;;;;;8.35;4.70;;;;;;;;;;4991345;28;20065;-80
2022/08/21 14:08:58;;;;;;;5.87;3.77;;;;;;;;;;4988749;28;20487;-80
2022/08/21 14:11:28;;;;;;;16.98;11.52;;;;;;;;;;4991087;28;20034;-79
2022/08/21 14:13:55;;;;;;;10.77;7.15;;;;;;;;;;4987290;28;20109;-80
2022/08/21 14:16:40;;;;;;;6.85;4.95;;;;;;;;;;4990334;28;20081;-80
2022/08/21 14:19:18;;;;;;;6.28;4.53;;;;;;;;;;4991668;28;20521;-80
2022/08/21 14:21:43;;;;;;;6.00;4.85;;;;;;;;;;4991807;28;20093;-80
2022/08/21 14:24:13;;;;;;;5.85;4.20;;;;;;;;;;4993602;28;20490;-79
2022/08/21 14:26:51;;;;;;;8.45;5.05;;;;;;;;;;4991714;28;20037;-80
2022/08/21 14:29:20;;;;;;;11.23;10.02;;;;;;;;;;4992101;28;20026;-80
2022/08/21 14:31:58;;;;;;;14.45;9.18;;;;;;;;;;4991132;28;20022;-80
2022/08/21 14:34:28;;;;;;;7.88;5.40;;;;;;;;;;4992778;28;20109;-79
2022/08/21 14:36:54;;;;;;;8.30;4.85;;;;;;;;;;4994571;28;20037;-80
2022/08/21 14:39:20;;;;;;;8.27;4.90;;;;;;;;;;4991721;28;20085;-79
2022/08/21 14:41:48;;;;;;;6.05;3.85;;;;;;;;;;4991422;28;20023;-80
2022/08/21 14:44:15;;;;;;;6.13;4.20;;;;;;;;;;4991074;28;20026;-79
2022/08/21 14:46:40;;;;;;;6.57;4.22;;;;;;;;;;4999988;28;20031;-79
2022/08/21 14:49:05;;;;;;;7.30;4.47;;;;;;;;;;4990129;28;20478;-79
2022/08/21 14:51:31;;;;;;;8.77;4.32;;;;;;;;;;4992111;28;20483;-80
2022/08/21 14:53:57;;;;;;;6.22;4.20;;;;;;;;;;4989924;28;20442;-80
2022/08/21 14:56:22;;;;;;;5.97;4.00;;;;;;;;;;4990690;28;20034;-80
2022/08/21 14:58:51;;;;;;;6.72;4.10;;;;;;;;;;4988617;28;20030;-79
2022/08/21 15:01:19;;;;;;;7.63;4.13;;;;;;;;;;4990073;28;20077;-80
2022/08/21 15:03:45;;;;;;;6.68;4.57;;;;;;;;;;4988821;28;20481;-79